createdAt,value
2022-08-25T00:00:03.465Z,8
2022-08-25T00:01:03.563Z,9
2022-08-25T00:02:03.155Z,8
2022-08-25T00:03:03.286Z,8
2022-08-25T00:04:02.583Z,8
2022-08-25T00:05:03.145Z,8
2022-08-25T00:06:03.037Z,8
2022-08-25T00:07:03.525Z,8
2022-08-25T00:08:03.064Z,8
2022-08-25T00:09:03.168Z,9
2022-08-25T00:10:03.549Z,8
2022-08-25T00:11:03.803Z,8
2022-08-25T00:12:02.619Z,8
2022-08-25T00:13:02.742Z,8
2022-08-25T00:14:02.726Z,8
2022-08-25T00:15:02.720Z,8
2022-08-25T00:16:03.058Z,9
2022-08-25T00:17:02.793Z,8
2022-08-25T00:18:02.855Z,8
2022-08-25T00:19:02.861Z,8
2022-08-25T00:20:02.758Z,8
2022-08-25T00:21:02.852Z,8
2022-08-25T00:22:03.434Z,8
2022-08-25T00:23:03.669Z,8
2022-08-25T00:24:03.582Z,8
2022-08-25T00:25:03.465Z,8
2022-08-25T00:26:03.575Z,8
2022-08-25T00:27:02.796Z,8
2022-08-25T00:28:06.508Z,8
2022-08-25T00:29:02.882Z,8
2022-08-25T00:30:02.676Z,8
2022-08-25T00:31:02.626Z,8
2022-08-25T00:32:03.290Z,8
2022-08-25T00:33:03.199Z,8
2022-08-25T00:34:03.719Z,8
2022-08-25T00:35:03.449Z,8
2022-08-25T00:36:03.133Z,8
2022-08-25T00:37:02.807Z,8
2022-08-25T00:38:02.700Z,8
2022-08-25T00:39:02.679Z,8
2022-08-25T00:40:02.599Z,8
2022-08-25T00:41:02.690Z,8
2022-08-25T00:42:03.052Z,8
2022-08-25T00:43:03.671Z,8
2022-08-25T00:44:03.322Z,8
2022-08-25T00:45:03.568Z,8
2022-08-25T00:46:03.470Z,8
2022-08-25T00:47:03.415Z,8
2022-08-25T00:48:03.593Z,8
2022-08-25T00:49:03.396Z,8
2022-08-25T00:50:03.226Z,7
2022-08-25T00:51:03.401Z,8
2022-08-25T00:52:02.988Z,7
2022-08-25T00:53:03.240Z,8
2022-08-25T00:54:02.851Z,8
2022-08-25T00:55:08.287Z,8
2022-08-25T00:56:02.863Z,7
2022-08-25T00:57:03.335Z,8
2022-08-25T00:58:03.596Z,8
2022-08-25T00:59:03.367Z,8
2022-08-25T01:00:03.459Z,8
2022-08-25T01:01:03.549Z,8
2022-08-25T01:02:03.200Z,8
2022-08-25T01:03:03.481Z,7
2022-08-25T01:04:03.285Z,8
2022-08-25T01:05:03.230Z,7
2022-08-25T01:06:03.139Z,8
2022-08-25T01:07:02.807Z,7
2022-08-25T01:08:02.603Z,8
2022-08-25T01:09:02.863Z,8
2022-08-25T01:10:02.698Z,7
2022-08-25T01:11:02.577Z,8
2022-08-25T01:12:03.051Z,8
2022-08-25T01:13:03.340Z,8
2022-08-25T01:14:03.093Z,7
2022-08-25T01:15:02.734Z,8
2022-08-25T01:16:03.172Z,8
2022-08-25T01:17:02.861Z,8
2022-08-25T01:18:02.767Z,8
2022-08-25T01:19:02.571Z,8
2022-08-25T01:20:02.500Z,7
2022-08-25T01:21:03.061Z,7
2022-08-25T01:22:03.220Z,8
2022-08-25T01:23:03.062Z,7
2022-08-25T01:24:03.041Z,7
2022-08-25T01:25:02.953Z,7
2022-08-25T01:26:03.558Z,8
2022-08-25T01:27:02.971Z,8
2022-08-25T01:28:03.158Z,7
2022-08-25T01:29:02.910Z,8
2022-08-25T01:30:02.845Z,7
2022-08-25T01:31:02.532Z,7
2022-08-25T01:32:03.182Z,7
2022-08-25T01:33:02.946Z,7
2022-08-25T01:34:02.894Z,7
2022-08-25T01:35:02.827Z,7
2022-08-25T01:36:03.272Z,7
2022-08-25T01:37:03.466Z,7
2022-08-25T01:38:03.421Z,7
2022-08-25T01:39:03.573Z,7
2022-08-25T01:40:03.586Z,7
2022-08-25T01:41:03.264Z,7
2022-08-25T01:42:03.869Z,7
2022-08-25T01:43:03.750Z,7
2022-08-25T01:44:03.661Z,7
2022-08-25T01:45:03.524Z,7
2022-08-25T01:46:03.438Z,7
2022-08-25T01:47:03.122Z,7
2022-08-25T01:48:03.108Z,7
2022-08-25T01:49:06.708Z,7
2022-08-25T01:50:02.635Z,8
2022-08-25T01:51:02.580Z,8
2022-08-25T01:52:03.262Z,7
2022-08-25T01:53:02.978Z,7
2022-08-25T01:54:02.921Z,7
2022-08-25T01:55:02.814Z,7
2022-08-25T01:56:03.810Z,7
2022-08-25T01:57:03.347Z,7
2022-08-25T01:58:03.332Z,7
2022-08-25T01:59:03.331Z,7
2022-08-25T02:00:03.043Z,7
2022-08-25T02:01:03.038Z,7
2022-08-25T02:02:04.870Z,7
2022-08-25T02:03:02.659Z,7
2022-08-25T02:04:02.601Z,7
2022-08-25T02:05:02.514Z,7
2022-08-25T02:06:04.208Z,7
2022-08-25T02:07:02.691Z,7
2022-08-25T02:08:03.359Z,7
2022-08-25T02:09:03.167Z,7
2022-08-25T02:10:03.460Z,7
2022-08-25T02:11:02.704Z,7
2022-08-25T02:12:02.408Z,7
2022-08-25T02:13:02.681Z,7
2022-08-25T02:14:02.542Z,7
2022-08-25T02:15:02.481Z,7
2022-08-25T02:16:02.911Z,7
2022-08-25T02:17:02.922Z,7
2022-08-25T02:18:02.915Z,7
2022-08-25T02:19:03.361Z,7
2022-08-25T02:20:03.472Z,7
2022-08-25T02:21:03.269Z,7
2022-08-25T02:22:02.275Z,7
2022-08-25T02:23:02.205Z,7
2022-08-25T02:24:02.844Z,7
2022-08-25T02:25:02.879Z,7
2022-08-25T02:26:02.300Z,7
2022-08-25T02:27:02.917Z,7
2022-08-25T02:28:02.860Z,7
2022-08-25T02:29:03.502Z,7
2022-08-25T02:30:03.051Z,7
2022-08-25T02:31:03.053Z,7
2022-08-25T02:32:02.075Z,7
2022-08-25T02:33:02.056Z,7
2022-08-25T02:34:02.354Z,7
2022-08-25T02:35:02.153Z,7
2022-08-25T02:36:02.437Z,7
2022-08-25T02:37:02.361Z,7
2022-08-25T02:38:03.040Z,7
2022-08-25T02:39:02.516Z,7
2022-08-25T02:40:02.561Z,7
2022-08-25T02:41:02.548Z,7
2022-08-25T02:42:03.467Z,7
2022-08-25T02:43:03.452Z,7
2022-08-25T02:44:03.338Z,7
2022-08-25T02:45:03.262Z,7
2022-08-25T02:46:03.659Z,7
2022-08-25T02:47:02.433Z,7
2022-08-25T02:48:02.283Z,7
2022-08-25T02:49:02.238Z,7
2022-08-25T02:50:02.651Z,7
2022-08-25T02:51:02.580Z,7
2022-08-25T02:52:02.482Z,7
2022-08-25T02:53:02.318Z,7
2022-08-25T02:54:02.919Z,7
2022-08-25T02:55:02.613Z,7
2022-08-25T02:56:02.514Z,7
2022-08-25T02:57:02.595Z,7
2022-08-25T02:58:02.716Z,7
2022-08-25T02:59:02.825Z,7
2022-08-25T03:00:02.922Z,7
2022-08-25T03:01:03.063Z,7
2022-08-25T03:02:02.799Z,7
2022-08-25T03:03:02.751Z,7
2022-08-25T03:04:02.884Z,7
2022-08-25T03:05:02.918Z,7
2022-08-25T03:06:02.940Z,7
2022-08-25T03:07:01.974Z,7
2022-08-25T03:08:01.927Z,7
2022-08-25T03:09:01.942Z,7
2022-08-25T03:10:01.881Z,7
2022-08-25T03:11:01.811Z,7
2022-08-25T03:12:02.400Z,7
2022-08-25T03:13:02.391Z,7
2022-08-25T03:14:02.190Z,7
2022-08-25T03:15:02.838Z,7
2022-08-25T03:16:02.926Z,7
2022-08-25T03:17:02.879Z,7
2022-08-25T03:18:03.144Z,7
2022-08-25T03:19:02.564Z,7
2022-08-25T03:20:02.649Z,7
2022-08-25T03:21:02.609Z,7
2022-08-25T03:22:02.256Z,7
2022-08-25T03:23:02.582Z,7
2022-08-25T03:24:02.311Z,7
2022-08-25T03:25:02.230Z,7
2022-08-25T03:26:02.437Z,7
2022-08-25T03:27:02.392Z,7
2022-08-25T03:28:02.436Z,7
2022-08-25T03:29:02.458Z,7
2022-08-25T03:30:02.098Z,7
2022-08-25T03:31:02.636Z,7
2022-08-25T03:32:02.509Z,7
2022-08-25T03:33:02.312Z,7
2022-08-25T03:34:02.809Z,7
2022-08-25T03:35:02.498Z,7
2022-08-25T03:36:02.733Z,7
2022-08-25T03:37:02.313Z,7
2022-08-25T03:38:02.451Z,7
2022-08-25T03:39:02.504Z,7
2022-08-25T03:40:02.507Z,7
2022-08-25T03:41:02.296Z,7
2022-08-25T03:42:02.411Z,7
2022-08-25T03:43:02.322Z,6
2022-08-25T03:44:02.162Z,7
2022-08-25T03:45:02.117Z,7
2022-08-25T03:46:02.754Z,7
2022-08-25T03:47:02.457Z,7
2022-08-25T03:48:02.374Z,7
2022-08-25T03:49:02.770Z,7
2022-08-25T03:50:02.514Z,7
2022-08-25T03:51:02.396Z,7
2022-08-25T03:52:03.052Z,7
2022-08-25T03:53:02.976Z,7
2022-08-25T03:54:02.978Z,7
2022-08-25T03:55:02.949Z,7
2022-08-25T03:56:03.144Z,7
2022-08-25T03:57:02.527Z,7
2022-08-25T03:58:02.644Z,7
2022-08-25T03:59:02.544Z,7
2022-08-25T04:00:02.598Z,7
2022-08-25T04:01:02.767Z,7
2022-08-25T04:02:03.177Z,7
2022-08-25T04:03:03.052Z,7
2022-08-25T04:04:02.933Z,7
2022-08-25T04:05:02.796Z,7
2022-08-25T04:06:02.846Z,7
2022-08-25T04:07:03.527Z,7
2022-08-25T04:08:03.672Z,7
2022-08-25T04:09:03.561Z,7
2022-08-25T04:10:03.543Z,7
2022-08-25T04:11:03.451Z,7
2022-08-25T04:12:03.181Z,7
2022-08-25T04:13:03.092Z,7
2022-08-25T04:14:03.114Z,7
2022-08-25T04:15:03.134Z,7
2022-08-25T04:16:03.079Z,7
2022-08-25T04:17:03.833Z,7
2022-08-25T04:18:03.933Z,7
2022-08-25T04:19:03.828Z,7
2022-08-25T04:20:03.326Z,7
2022-08-25T04:21:03.360Z,8
2022-08-25T04:22:03.233Z,7
2022-08-25T04:23:03.307Z,7
2022-08-25T04:24:02.996Z,7
2022-08-25T04:25:03.268Z,7
2022-08-25T04:26:03.049Z,7
2022-08-25T04:27:03.470Z,7
2022-08-25T04:28:03.119Z,7
2022-08-25T04:29:03.046Z,7
2022-08-25T04:30:03.232Z,7
2022-08-25T04:31:03.305Z,7
2022-08-25T04:32:03.154Z,7
2022-08-25T04:33:02.500Z,7
2022-08-25T04:34:02.526Z,7
2022-08-25T04:35:02.530Z,7
2022-08-25T04:36:02.615Z,7
2022-08-25T04:37:03.358Z,7
2022-08-25T04:38:03.161Z,7
2022-08-25T04:39:02.722Z,7
2022-08-25T04:40:02.845Z,7
2022-08-25T04:41:02.959Z,7
2022-08-25T04:42:03.468Z,7
2022-08-25T04:43:03.520Z,7
2022-08-25T04:44:03.199Z,7
2022-08-25T04:45:03.211Z,7
2022-08-25T04:46:03.717Z,7
2022-08-25T04:47:03.292Z,7
2022-08-25T04:48:03.064Z,7
2022-08-25T04:49:03.178Z,7
2022-08-25T04:50:03.276Z,7
2022-08-25T04:51:02.684Z,7
2022-08-25T04:52:03.385Z,7
2022-08-25T04:53:03.208Z,7
2022-08-25T04:54:03.285Z,7
2022-08-25T04:55:03.296Z,7
2022-08-25T04:56:03.982Z,7
2022-08-25T04:57:03.520Z,7
2022-08-25T04:58:03.011Z,7
2022-08-25T04:59:03.135Z,7
2022-08-25T05:00:03.223Z,7
2022-08-25T05:01:02.920Z,7
2022-08-25T05:02:02.850Z,7
2022-08-25T05:03:02.167Z,7
2022-08-25T05:04:02.125Z,7
2022-08-25T05:05:02.149Z,7
2022-08-25T05:06:02.120Z,7
2022-08-25T05:07:02.212Z,7
2022-08-25T05:08:02.849Z,7
2022-08-25T05:09:02.782Z,7
2022-08-25T05:10:02.617Z,7
2022-08-25T05:11:02.268Z,7
2022-08-25T05:12:02.898Z,7
2022-08-25T05:13:02.431Z,7
2022-08-25T05:14:02.389Z,7
2022-08-25T05:15:02.496Z,7
2022-08-25T05:16:02.992Z,7
2022-08-25T05:17:02.315Z,7
2022-08-25T05:18:02.185Z,7
2022-08-25T05:19:01.949Z,7
2022-08-25T05:20:01.844Z,7
2022-08-25T05:21:02.236Z,7
2022-08-25T05:22:02.352Z,7
2022-08-25T05:23:02.544Z,7
2022-08-25T05:24:02.758Z,8
2022-08-25T05:25:02.908Z,7
2022-08-25T05:26:02.710Z,7
2022-08-25T05:27:02.470Z,7
2022-08-25T05:28:02.843Z,7
2022-08-25T05:29:02.361Z,7
2022-08-25T05:30:02.909Z,7
2022-08-25T05:31:02.969Z,7
2022-08-25T05:32:01.809Z,7
2022-08-25T05:33:01.894Z,7
2022-08-25T05:34:02.040Z,7
2022-08-25T05:35:01.722Z,7
2022-08-25T05:36:01.859Z,8
2022-08-25T05:37:02.511Z,8
2022-08-25T05:38:02.591Z,7
2022-08-25T05:39:02.733Z,7
2022-08-25T05:40:02.911Z,8
2022-08-25T05:41:02.743Z,7
2022-08-25T05:42:02.244Z,7
2022-08-25T05:43:01.903Z,7
2022-08-25T05:44:01.622Z,7
2022-08-25T05:45:02.294Z,7
2022-08-25T05:46:02.222Z,7
2022-08-25T05:47:02.173Z,7
2022-08-25T05:48:02.474Z,7
2022-08-25T05:49:02.369Z,8
2022-08-25T05:50:02.076Z,8
2022-08-25T05:51:02.553Z,8
2022-08-25T05:52:02.454Z,8
2022-08-25T05:53:02.737Z,7
2022-08-25T05:54:02.661Z,7
2022-08-25T05:55:02.753Z,7
2022-08-25T05:56:02.321Z,8
2022-08-25T05:57:01.896Z,8
2022-08-25T05:58:02.086Z,8
2022-08-25T05:59:06.099Z,8
2022-08-25T06:00:02.515Z,8
2022-08-25T06:01:02.578Z,8
2022-08-25T06:02:03.464Z,8
2022-08-25T06:03:03.553Z,8
2022-08-25T06:04:03.644Z,8
2022-08-25T06:05:04.092Z,8
2022-08-25T06:06:03.217Z,8
2022-08-25T06:07:02.967Z,8
2022-08-25T06:08:03.098Z,8
2022-08-25T06:09:03.102Z,8
2022-08-25T06:10:03.342Z,8
2022-08-25T06:11:03.232Z,8
2022-08-25T06:12:03.364Z,8
2022-08-25T06:13:03.409Z,8
2022-08-25T06:14:03.439Z,9
2022-08-25T06:15:03.502Z,9
2022-08-25T06:16:03.669Z,9
2022-08-25T06:17:03.785Z,9
2022-08-25T06:18:03.551Z,9
2022-08-25T06:19:03.640Z,8
2022-08-25T06:20:03.835Z,9
2022-08-25T06:21:03.822Z,9
2022-08-25T06:22:03.302Z,9
2022-08-25T06:23:03.366Z,9
2022-08-25T06:24:03.486Z,8
2022-08-25T06:25:03.132Z,8
2022-08-25T06:26:03.376Z,8
2022-08-25T06:27:02.890Z,8
2022-08-25T06:28:03.040Z,8
2022-08-25T06:29:02.654Z,8
2022-08-25T06:30:08.035Z,8
2022-08-25T06:31:03.034Z,9
2022-08-25T06:32:02.946Z,8
2022-08-25T06:33:03.342Z,8
2022-08-25T06:34:02.760Z,8
2022-08-25T06:35:02.781Z,8
2022-08-25T06:36:02.839Z,8
2022-08-25T06:37:03.680Z,8
2022-08-25T06:38:03.809Z,8
2022-08-25T06:39:03.460Z,7
2022-08-25T06:40:03.464Z,8
2022-08-25T06:41:03.507Z,8
2022-08-25T06:42:02.967Z,8
2022-08-25T06:43:03.476Z,8
2022-08-25T06:44:05.441Z,7
2022-08-25T06:45:03.395Z,7
2022-08-25T06:46:03.410Z,8
2022-08-25T06:47:03.622Z,8
2022-08-25T06:48:03.349Z,7
2022-08-25T06:49:03.422Z,8
2022-08-25T06:50:03.421Z,8
2022-08-25T06:51:03.471Z,8
2022-08-25T06:52:03.330Z,8
2022-08-25T06:53:03.513Z,7
2022-08-25T06:54:03.472Z,7
2022-08-25T06:55:03.333Z,8
2022-08-25T06:56:06.525Z,8
2022-08-25T06:57:03.890Z,8
2022-08-25T06:58:04.897Z,8
2022-08-25T06:59:03.486Z,8
2022-08-25T07:00:04.011Z,8
2022-08-25T07:01:04.126Z,8
2022-08-25T07:02:03.716Z,8
2022-08-25T07:03:02.880Z,8
2022-08-25T07:04:02.869Z,8
2022-08-25T07:05:03.148Z,8
2022-08-25T07:06:03.319Z,8
2022-08-25T07:07:03.231Z,8
2022-08-25T07:08:03.159Z,8
2022-08-25T07:09:02.820Z,8
2022-08-25T07:10:03.004Z,8
2022-08-25T07:11:03.172Z,8
2022-08-25T07:12:03.458Z,8
2022-08-25T07:13:03.065Z,8
2022-08-25T07:14:03.465Z,8
2022-08-25T07:15:19.454Z,8
2022-08-25T07:16:02.908Z,8
2022-08-25T07:17:02.939Z,8
2022-08-25T07:18:02.628Z,8
2022-08-25T07:19:02.701Z,8
2022-08-25T07:20:02.712Z,8
2022-08-25T07:21:02.945Z,8
2022-08-25T07:22:03.050Z,8
2022-08-25T07:23:02.818Z,8
2022-08-25T07:24:02.872Z,8
2022-08-25T07:25:02.919Z,8
2022-08-25T07:26:08.140Z,8
2022-08-25T07:27:03.095Z,8
2022-08-25T07:28:02.662Z,8
2022-08-25T07:29:03.058Z,8
2022-08-25T07:30:04.372Z,8
2022-08-25T07:31:03.179Z,8
2022-08-25T07:32:02.775Z,8
2022-08-25T07:33:06.758Z,8
2022-08-25T07:34:02.151Z,8
2022-08-25T07:35:02.682Z,8
2022-08-25T07:36:02.549Z,8
2022-08-25T07:37:03.308Z,8
2022-08-25T07:38:03.217Z,8
2022-08-25T07:39:03.112Z,8
2022-08-25T07:40:02.843Z,8
2022-08-25T07:41:02.882Z,8
2022-08-25T07:42:02.099Z,8
2022-08-25T07:43:02.504Z,8
2022-08-25T07:44:02.586Z,8
2022-08-25T07:45:02.687Z,8
2022-08-25T07:46:02.553Z,8
2022-08-25T07:47:02.791Z,8
2022-08-25T07:48:02.976Z,8
2022-08-25T07:49:03.108Z,8
2022-08-25T07:50:03.245Z,8
2022-08-25T07:51:05.526Z,8
2022-08-25T07:52:05.318Z,8
2022-08-25T07:53:02.662Z,8
2022-08-25T07:54:02.817Z,8
2022-08-25T07:55:02.959Z,7
2022-08-25T07:57:03.185Z,8
2022-08-25T07:58:03.495Z,8
2022-08-25T07:59:03.497Z,8
2022-08-25T08:00:03.631Z,8
2022-08-25T08:01:03.246Z,8
2022-08-25T08:02:02.347Z,8
2022-08-25T08:03:03.767Z,8
2022-08-25T08:04:03.662Z,8
2022-08-25T08:05:02.471Z,8
2022-08-25T08:06:02.569Z,8
2022-08-25T08:07:02.722Z,7
2022-08-25T08:08:02.822Z,8
2022-08-25T08:09:03.104Z,8
2022-08-25T08:10:29.661Z,8
2022-08-25T08:11:04.727Z,8
2022-08-25T08:12:02.080Z,8
2022-08-25T08:13:02.196Z,8
2022-08-25T08:14:02.511Z,8
2022-08-25T08:15:02.437Z,8
2022-08-25T08:16:02.562Z,8
2022-08-25T08:17:02.505Z,8
2022-08-25T08:18:03.102Z,8
2022-08-25T08:19:02.341Z,8
2022-08-25T08:20:03.010Z,8
2022-08-25T08:21:02.890Z,8
2022-08-25T08:22:02.841Z,8
2022-08-25T08:23:03.351Z,8
2022-08-25T08:24:05.073Z,8
2022-08-25T08:25:03.261Z,8
2022-08-25T08:26:03.379Z,8
2022-08-25T08:27:02.306Z,8
2022-08-25T08:28:02.575Z,7
2022-08-25T08:29:02.629Z,8
2022-08-25T08:30:02.747Z,8
2022-08-25T08:31:02.258Z,8
2022-08-25T08:32:03.005Z,8
2022-08-25T08:33:12.023Z,8
2022-08-25T08:34:03.486Z,8
2022-08-25T08:35:03.447Z,8
2022-08-25T08:36:05.166Z,8
2022-08-25T08:37:02.549Z,8
2022-08-25T08:38:02.970Z,8
2022-08-25T08:39:02.841Z,8
2022-08-25T08:40:03.326Z,8
2022-08-25T08:41:02.974Z,8
2022-08-25T08:42:11.177Z,8
2022-08-25T08:43:03.068Z,8
2022-08-25T08:44:03.301Z,7
2022-08-25T08:45:02.996Z,8
2022-08-25T08:46:02.757Z,8
2022-08-25T08:47:02.662Z,8
2022-08-25T08:48:03.049Z,8
2022-08-25T08:49:02.804Z,8
2022-08-25T08:50:03.853Z,8
2022-08-25T08:51:02.814Z,8
2022-08-25T08:52:02.965Z,8
2022-08-25T08:53:03.219Z,8
2022-08-25T08:54:03.338Z,8
2022-08-25T08:55:05.636Z,8
2022-08-25T08:56:02.920Z,8
2022-08-25T08:57:02.710Z,8
2022-08-25T08:58:02.895Z,8
2022-08-25T08:59:06.376Z,8
2022-08-25T09:00:02.708Z,8
2022-08-25T09:01:02.866Z,8
2022-08-25T09:02:02.162Z,8
2022-08-25T09:03:02.091Z,8
2022-08-25T09:04:02.232Z,8
2022-08-25T09:05:01.695Z,8
2022-08-25T09:06:01.932Z,8
2022-08-25T09:07:02.370Z,8
2022-08-25T09:08:02.358Z,8
2022-08-25T09:09:02.537Z,8
2022-08-25T09:10:02.320Z,8
2022-08-25T09:11:02.438Z,8
2022-08-25T09:12:02.121Z,8
2022-08-25T09:13:02.004Z,8
2022-08-25T09:14:02.175Z,8
2022-08-25T09:15:02.343Z,8
2022-08-25T09:16:02.278Z,8
2022-08-25T09:17:02.183Z,8
2022-08-25T09:18:02.097Z,8
2022-08-25T09:19:01.897Z,8
2022-08-25T09:20:01.988Z,8
2022-08-25T09:21:02.163Z,9
2022-08-25T09:22:02.267Z,9
2022-08-25T09:23:02.458Z,9
2022-08-25T09:24:02.136Z,8
2022-08-25T09:25:04.370Z,9
2022-08-25T09:26:02.128Z,8
2022-08-25T09:27:02.968Z,8
2022-08-25T09:28:02.700Z,9
2022-08-25T09:29:03.154Z,8
2022-08-25T09:30:05.237Z,9
2022-08-25T09:31:03.201Z,9
2022-08-25T09:32:02.428Z,8
2022-08-25T09:33:02.210Z,9
2022-08-25T09:34:02.407Z,8
2022-08-25T09:35:02.067Z,9
2022-08-25T09:36:04.613Z,9
2022-08-25T09:37:02.931Z,9
2022-08-25T09:38:02.930Z,8
2022-08-25T09:39:02.991Z,9
2022-08-25T09:40:02.922Z,9
2022-08-25T09:41:02.956Z,9
2022-08-25T09:42:02.620Z,9
2022-08-25T09:43:02.350Z,8
2022-08-25T09:44:02.306Z,9
2022-08-25T09:45:02.488Z,9
2022-08-25T09:46:02.298Z,9
2022-08-25T09:47:03.113Z,8
2022-08-25T09:48:02.931Z,9
2022-08-25T09:49:02.915Z,9
2022-08-25T09:50:05.248Z,9
2022-08-25T09:51:03.317Z,9
2022-08-25T09:52:02.672Z,9
2022-08-25T09:53:02.462Z,9
2022-08-25T09:54:02.212Z,9
2022-08-25T09:55:02.345Z,9
2022-08-25T09:56:02.770Z,9
2022-08-25T09:57:03.227Z,9
2022-08-25T09:58:03.220Z,9
2022-08-25T09:59:03.271Z,8
2022-08-25T10:00:03.061Z,9
2022-08-25T10:01:02.952Z,9
2022-08-25T10:02:02.197Z,9
2022-08-25T10:03:05.918Z,8
2022-08-25T10:04:02.354Z,9
2022-08-25T10:05:02.636Z,9
2022-08-25T10:06:02.831Z,9
2022-08-25T10:07:02.425Z,9
2022-08-25T10:08:02.756Z,9
2022-08-25T10:09:02.899Z,9
2022-08-25T10:10:03.071Z,9
2022-08-25T10:11:02.981Z,9
2022-08-25T10:12:02.860Z,9
2022-08-25T10:13:03.101Z,9
2022-08-25T10:14:03.336Z,9
2022-08-25T10:15:03.452Z,9
2022-08-25T10:16:03.429Z,9
2022-08-25T10:17:03.491Z,9
2022-08-25T10:18:02.663Z,9
2022-08-25T10:19:03.087Z,9
2022-08-25T10:20:02.740Z,9
2022-08-25T10:21:02.906Z,10
2022-08-25T10:22:03.199Z,9
2022-08-25T10:23:03.124Z,9
2022-08-25T10:24:02.419Z,9
2022-08-25T10:25:04.649Z,10
2022-08-25T10:26:03.621Z,10
2022-08-25T10:27:02.828Z,9
2022-08-25T10:28:02.754Z,9
2022-08-25T10:29:02.967Z,10
2022-08-25T10:30:03.120Z,10
2022-08-25T10:31:02.627Z,10
2022-08-25T10:32:02.854Z,10
2022-08-25T10:33:02.644Z,9
2022-08-25T10:34:02.522Z,10
2022-08-25T10:35:02.592Z,10
2022-08-25T10:36:02.760Z,10
2022-08-25T10:37:02.765Z,10
2022-08-25T10:38:02.671Z,10
2022-08-25T10:39:02.874Z,9
2022-08-25T10:40:03.117Z,10
2022-08-25T10:41:02.595Z,10
2022-08-25T10:42:02.898Z,10
2022-08-25T10:43:03.208Z,10
2022-08-25T10:44:03.198Z,10
2022-08-25T10:45:03.229Z,10
2022-08-25T10:46:03.133Z,10
2022-08-25T10:47:03.116Z,10
2022-08-25T10:48:03.790Z,10
2022-08-25T10:49:03.614Z,10
2022-08-25T10:50:03.464Z,10
2022-08-25T10:51:03.288Z,11
2022-08-25T10:52:03.454Z,10
2022-08-25T10:53:03.168Z,10
2022-08-25T10:54:02.787Z,11
2022-08-25T10:55:03.443Z,10
2022-08-25T10:56:03.339Z,11
2022-08-25T10:57:03.424Z,11
2022-08-25T10:58:03.121Z,11
2022-08-25T10:59:03.337Z,11
2022-08-25T11:00:03.426Z,11
2022-08-25T11:01:03.226Z,11
2022-08-25T11:02:03.521Z,11
2022-08-25T11:03:03.840Z,11
2022-08-25T11:04:03.301Z,10
2022-08-25T11:05:03.512Z,11
2022-08-25T11:06:03.251Z,11
2022-08-25T11:07:03.647Z,11
2022-08-25T11:08:03.255Z,11
2022-08-25T11:09:03.372Z,11
2022-08-25T11:10:03.559Z,11
2022-08-25T11:11:03.198Z,11
2022-08-25T11:12:03.325Z,11
2022-08-25T11:13:02.781Z,11
2022-08-25T11:14:06.381Z,11
2022-08-25T11:15:03.150Z,11
2022-08-25T11:16:18.895Z,11
2022-08-25T11:17:03.308Z,11
2022-08-25T11:18:03.715Z,11
2022-08-25T11:19:05.426Z,11
2022-08-25T11:20:03.357Z,11
2022-08-25T11:21:03.474Z,11
2022-08-25T11:22:03.581Z,11
2022-08-25T11:23:02.840Z,11
2022-08-25T11:24:02.967Z,11
2022-08-25T11:25:03.615Z,11
2022-08-25T11:26:03.395Z,12
2022-08-25T11:27:03.297Z,11
2022-08-25T11:28:04.150Z,11
2022-08-25T11:29:03.704Z,11
2022-08-25T11:30:05.928Z,11
2022-08-25T11:31:04.024Z,11
2022-08-25T11:32:04.094Z,11
2022-08-25T11:33:03.594Z,11
2022-08-25T11:34:03.197Z,11
2022-08-25T11:35:03.338Z,11
2022-08-25T11:36:03.474Z,12
2022-08-25T11:37:03.695Z,12
2022-08-25T11:38:02.898Z,12
2022-08-25T11:39:03.108Z,12
2022-08-25T11:40:03.233Z,12
2022-08-25T11:41:03.342Z,12
2022-08-25T11:42:03.230Z,12
2022-08-25T11:43:03.443Z,11
2022-08-25T11:44:03.618Z,12
2022-08-25T11:45:03.818Z,12
2022-08-25T11:46:03.930Z,12
2022-08-25T11:47:03.913Z,12
2022-08-25T11:48:03.211Z,12
2022-08-25T11:49:03.482Z,12
2022-08-25T11:50:03.068Z,12
2022-08-25T11:51:03.259Z,13
2022-08-25T11:52:03.539Z,12
2022-08-25T11:53:03.564Z,12
2022-08-25T11:54:03.819Z,12
2022-08-25T11:55:03.448Z,12
2022-08-25T11:56:03.556Z,13
2022-08-25T11:57:03.757Z,12
2022-08-25T11:58:04.101Z,12
2022-08-25T11:59:03.779Z,12
2022-08-25T12:00:03.736Z,12
2022-08-25T12:01:04.059Z,12
2022-08-25T12:02:04.193Z,12
2022-08-25T12:03:02.522Z,12
2022-08-25T12:04:02.396Z,12
2022-08-25T12:05:02.538Z,12
2022-08-25T12:06:02.583Z,12
2022-08-25T12:07:02.245Z,12
2022-08-25T12:08:02.987Z,12
2022-08-25T12:09:03.092Z,12
2022-08-25T12:10:03.155Z,12
2022-08-25T12:11:04.332Z,13
2022-08-25T12:12:02.777Z,13
2022-08-25T12:13:02.906Z,12
2022-08-25T12:14:03.089Z,12
2022-08-25T12:15:03.262Z,12
2022-08-25T12:16:03.276Z,13
2022-08-25T12:17:03.278Z,13
2022-08-25T12:18:06.821Z,13
2022-08-25T12:19:02.384Z,13
2022-08-25T12:20:02.532Z,13
2022-08-25T12:21:02.189Z,13
2022-08-25T12:22:03.514Z,13
2022-08-25T12:23:02.237Z,13
2022-08-25T12:24:02.594Z,12
2022-08-25T12:25:02.206Z,13
2022-08-25T12:26:02.598Z,13
2022-08-25T12:27:02.723Z,13
2022-08-25T12:28:02.596Z,13
2022-08-25T12:29:02.644Z,13
2022-08-25T12:30:02.326Z,13
2022-08-25T12:31:02.465Z,13
2022-08-25T12:32:04.836Z,13
2022-08-25T12:33:02.353Z,13
2022-08-25T12:34:02.792Z,13
2022-08-25T12:35:02.942Z,13
2022-08-25T12:36:02.865Z,14
2022-08-25T12:37:02.901Z,14
2022-08-25T12:38:03.604Z,13
2022-08-25T12:39:02.884Z,13
2022-08-25T12:40:03.011Z,13
2022-08-25T12:41:03.225Z,13
2022-08-25T12:42:03.438Z,13
2022-08-25T12:43:03.355Z,13
2022-08-25T12:44:03.590Z,13
2022-08-25T12:45:03.620Z,13
2022-08-25T12:46:03.796Z,14
2022-08-25T12:47:03.711Z,14
2022-08-25T12:48:02.560Z,13
2022-08-25T12:49:02.756Z,13
2022-08-25T12:50:02.817Z,13
2022-08-25T12:51:02.705Z,13
2022-08-25T12:52:02.884Z,13
2022-08-25T12:53:02.515Z,13
2022-08-25T12:54:05.408Z,13
2022-08-25T12:55:03.004Z,13
2022-08-25T12:56:02.765Z,14
2022-08-25T12:57:02.761Z,14
2022-08-25T12:58:03.311Z,13
2022-08-25T12:59:03.416Z,13
2022-08-25T13:00:05.666Z,13
2022-08-25T13:01:03.563Z,14
2022-08-25T13:02:07.295Z,14
2022-08-25T13:03:02.807Z,13
2022-08-25T13:04:02.923Z,13
2022-08-25T13:05:02.740Z,14
2022-08-25T13:06:03.024Z,14
2022-08-25T13:07:02.901Z,14
2022-08-25T13:08:02.906Z,13
2022-08-25T13:09:02.968Z,14
2022-08-25T13:10:03.038Z,13
2022-08-25T13:11:03.284Z,14
2022-08-25T13:12:03.431Z,14
2022-08-25T13:13:03.656Z,14
2022-08-25T13:14:03.599Z,14
2022-08-25T13:15:03.780Z,14
2022-08-25T13:16:03.204Z,15
2022-08-25T13:17:03.432Z,15
2022-08-25T13:18:03.178Z,14
2022-08-25T13:19:02.837Z,14
2022-08-25T13:20:02.748Z,14
2022-08-25T13:21:03.032Z,14
2022-08-25T13:22:03.207Z,15
2022-08-25T13:23:04.125Z,14
2022-08-25T13:24:05.475Z,14
2022-08-25T13:25:03.418Z,14
2022-08-25T13:26:02.962Z,14
2022-08-25T13:27:02.944Z,14
2022-08-25T13:28:03.807Z,13
2022-08-25T13:29:05.211Z,14
2022-08-25T13:30:03.732Z,14
2022-08-25T13:31:03.925Z,14
2022-08-25T13:32:04.006Z,14
2022-08-25T13:33:03.948Z,14
2022-08-25T13:34:03.429Z,14
2022-08-25T13:35:03.953Z,14
2022-08-25T13:37:04.011Z,15
2022-08-25T13:38:03.234Z,14
2022-08-25T13:39:03.310Z,14
2022-08-25T13:40:04.463Z,14
2022-08-25T13:41:03.328Z,15
2022-08-25T13:42:04.931Z,16
2022-08-25T13:43:03.205Z,15
2022-08-25T13:44:03.335Z,15
2022-08-25T13:45:03.401Z,15
2022-08-25T13:46:03.456Z,15
2022-08-25T13:47:03.676Z,16
2022-08-25T13:48:03.611Z,15
2022-08-25T13:49:03.488Z,15
2022-08-25T13:50:03.516Z,15
2022-08-25T13:51:03.698Z,16
2022-08-25T13:52:03.236Z,16
2022-08-25T13:53:03.931Z,15
2022-08-25T13:54:03.518Z,15
2022-08-25T13:55:04.539Z,15
2022-08-25T13:56:04.163Z,16
2022-08-25T13:57:04.090Z,16
2022-08-25T13:58:04.239Z,15
2022-08-25T13:59:03.779Z,15
2022-08-25T14:00:03.746Z,15
2022-08-25T14:01:03.742Z,15
2022-08-25T14:02:04.132Z,16
2022-08-25T14:03:03.459Z,15
2022-08-25T14:04:02.998Z,15
2022-08-25T14:05:02.426Z,16
2022-08-25T14:06:02.562Z,16
2022-08-25T14:07:02.734Z,16
2022-08-25T14:08:16.153Z,15
2022-08-25T14:09:01.957Z,15
2022-08-25T14:10:02.292Z,15
2022-08-25T14:11:02.334Z,16
2022-08-25T14:12:02.315Z,16
2022-08-25T14:13:03.092Z,15
2022-08-25T14:14:03.098Z,15
2022-08-25T14:15:02.669Z,15
2022-08-25T14:16:03.146Z,16
2022-08-25T14:17:12.018Z,16
2022-08-25T14:18:03.079Z,15
2022-08-25T14:19:02.975Z,15
2022-08-25T14:20:02.892Z,15
2022-08-25T14:21:02.916Z,15
2022-08-25T14:22:03.178Z,16
2022-08-25T14:23:02.422Z,15
2022-08-25T14:24:02.582Z,15
2022-08-25T14:25:02.956Z,16
2022-08-25T14:26:02.696Z,16
2022-08-25T14:27:02.937Z,16
2022-08-25T14:28:07.176Z,16
2022-08-25T14:29:02.520Z,15
2022-08-25T14:30:02.516Z,16
2022-08-25T14:31:02.251Z,16
2022-08-25T14:32:02.405Z,16
2022-08-25T14:33:02.751Z,15
2022-08-25T14:34:02.940Z,15
2022-08-25T14:35:09.815Z,15
2022-08-25T14:36:03.284Z,16
2022-08-25T14:37:02.936Z,16
2022-08-25T14:38:03.153Z,16
2022-08-25T14:39:03.268Z,15